sensor_id;sensor_type;location;lat;lon;timestamp;pressure;altitude;pressure_sealevel;temperature;humidity
73692;BME280;61996;49.910;35.562;2023-04-29T00:02:10;98854.09;;;20.59;43.73
73692;BME280;61996;49.910;35.562;2023-04-29T00:05:13;98856.78;;;20.59;44.05
73692;BME280;61996;49.910;35.562;2023-04-29T00:08:16;98856.44;;;20.53;43.66
73692;BME280;61996;49.910;35.562;2023-04-29T00:11:18;98857.09;;;20.56;43.90
73692;BME280;61996;49.910;35.562;2023-04-29T00:14:21;98861.44;;;20.57;43.67
73692;BME280;61996;49.910;35.562;2023-04-29T00:17:26;98860.59;;;20.56;43.68
73692;BME280;61996;49.910;35.562;2023-04-29T00:20:29;98865.75;;;20.58;43.61
73692;BME280;61996;49.910;35.562;2023-04-29T00:23:32;98865.28;;;20.54;43.71
73692;BME280;61996;49.910;35.562;2023-04-29T00:26:35;98869.63;;;20.55;43.88
73692;BME280;61996;49.910;35.562;2023-04-29T00:29:38;98869.13;;;20.51;43.75
73692;BME280;61996;49.910;35.562;2023-04-29T00:32:42;98876.13;;;20.52;43.60
73692;BME280;61996;49.910;35.562;2023-04-29T00:35:45;98882.31;;;20.53;43.60
73692;BME280;61996;49.910;35.562;2023-04-29T00:38:48;98874.47;;;20.51;43.61
73692;BME280;61996;49.910;35.562;2023-04-29T00:41:52;98887.66;;;20.45;43.81
73692;BME280;61996;49.910;35.562;2023-04-29T00:44:55;98886.94;;;20.43;43.71
73692;BME280;61996;49.910;35.562;2023-04-29T00:47:59;98886.28;;;20.57;43.63
73692;BME280;61996;49.910;35.562;2023-04-29T00:51:02;98881.59;;;20.43;43.70
73692;BME280;61996;49.910;35.562;2023-04-29T00:54:07;98889.81;;;20.49;43.58
73692;BME280;61996;49.910;35.562;2023-04-29T00:57:10;98896.16;;;20.48;43.65
73692;BME280;61996;49.910;35.562;2023-04-29T01:00:13;98905.66;;;20.51;43.40
73692;BME280;61996;49.910;35.562;2023-04-29T01:03:18;98907.84;;;20.56;43.68
73692;BME280;61996;49.910;35.562;2023-04-29T01:06:23;98904.00;;;20.50;43.68
73692;BME280;61996;49.910;35.562;2023-04-29T01:09:34;98908.69;;;20.56;43.71
73692;BME280;61996;49.910;35.562;2023-04-29T01:12:44;98910.03;;;20.52;43.73
73692;BME280;61996;49.910;35.562;2023-04-29T01:15:48;98907.28;;;20.44;43.57
73692;BME280;61996;49.910;35.562;2023-04-29T01:18:57;98913.66;;;20.43;43.68
73692;BME280;61996;49.910;35.562;2023-04-29T01:22:04;98914.19;;;20.46;43.49
73692;BME280;61996;49.910;35.562;2023-04-29T01:25:08;98918.50;;;20.39;43.73
73692;BME280;61996;49.910;35.562;2023-04-29T01:28:13;98915.31;;;20.44;43.48
73692;BME280;61996;49.910;35.562;2023-04-29T01:31:21;98918.69;;;20.54;43.18
73692;BME280;61996;49.910;35.562;2023-04-29T01:34:26;98917.03;;;20.61;43.36
73692;BME280;61996;49.910;35.562;2023-04-29T01:37:32;98915.69;;;20.57;43.54
73692;BME280;61996;49.910;35.562;2023-04-29T01:40:42;98914.53;;;20.51;43.45
73692;BME280;61996;49.910;35.562;2023-04-29T01:43:45;98910.84;;;20.44;43.63
73692;BME280;61996;49.910;35.562;2023-04-29T01:46:49;98908.47;;;20.41;43.53
73692;BME280;61996;49.910;35.562;2023-04-29T01:49:53;98913.38;;;20.46;43.44
73692;BME280;61996;49.910;35.562;2023-04-29T01:52:55;98914.47;;;20.35;43.68
73692;BME280;61996;49.910;35.562;2023-04-29T01:56:00;98909.97;;;20.44;43.42
73692;BME280;61996;49.910;35.562;2023-04-29T01:59:03;98904.97;;;20.41;43.33
73692;BME280;61996;49.910;35.562;2023-04-29T02:02:06;98904.97;;;20.33;43.65
73692;BME280;61996;49.910;35.562;2023-04-29T02:05:09;98906.34;;;20.45;43.15
73692;BME280;61996;49.910;35.562;2023-04-29T02:08:12;98901.31;;;20.42;43.30
73692;BME280;61996;49.910;35.562;2023-04-29T02:11:16;98896.63;;;20.36;43.41
73692;BME280;61996;49.910;35.562;2023-04-29T02:14:19;98893.78;;;20.37;43.41
73692;BME280;61996;49.910;35.562;2023-04-29T02:17:22;98898.44;;;20.43;43.41
73692;BME280;61996;49.910;35.562;2023-04-29T02:20:25;98893.94;;;20.36;43.60
73692;BME280;61996;49.910;35.562;2023-04-29T02:23:27;98892.94;;;20.37;43.29
73692;BME280;61996;49.910;35.562;2023-04-29T02:26:32;98894.13;;;20.34;43.55
73692;BME280;61996;49.910;35.562;2023-04-29T02:29:35;98893.47;;;20.32;43.41
73692;BME280;61996;49.910;35.562;2023-04-29T02:32:38;98898.63;;;20.34;43.34
73692;BME280;61996;49.910;35.562;2023-04-29T02:35:41;98905.97;;;20.32;43.39
73692;BME280;61996;49.910;35.562;2023-04-29T02:38:44;98896.63;;;20.36;43.32
73692;BME280;61996;49.910;35.562;2023-04-29T02:41:48;98904.63;;;20.36;43.14
73692;BME280;61996;49.910;35.562;2023-04-29T02:44:51;98903.13;;;20.33;43.08
73692;BME280;61996;49.910;35.562;2023-04-29T02:47:54;98910.81;;;20.36;43.26
73692;BME280;61996;49.910;35.562;2023-04-29T02:50:57;98910.50;;;20.31;43.16
73692;BME280;61996;49.910;35.562;2023-04-29T02:53:59;98919.47;;;20.30;43.31
73692;BME280;61996;49.910;35.562;2023-04-29T02:57:04;98931.03;;;20.31;43.25
73692;BME280;61996;49.910;35.562;2023-04-29T03:00:08;98923.50;;;20.26;43.24
73692;BME280;61996;49.910;35.562;2023-04-29T03:03:11;98927.66;;;20.29;43.23
73692;BME280;61996;49.910;35.562;2023-04-29T03:06:15;98923.50;;;20.34;43.35
73692;BME280;61996;49.910;35.562;2023-04-29T03:09:17;98928.19;;;20.32;43.24
73692;BME280;61996;49.910;35.562;2023-04-29T03:12:23;98937.34;;;20.30;43.26
73692;BME280;61996;49.910;35.562;2023-04-29T03:15:26;98933.84;;;20.37;43.09
73692;BME280;61996;49.910;35.562;2023-04-29T03:18:28;98938.69;;;20.25;43.27
73692;BME280;61996;49.910;35.562;2023-04-29T03:21:31;98938.50;;;20.27;43.32
73692;BME280;61996;49.910;35.562;2023-04-29T03:24:34;98951.19;;;20.33;43.09
73692;BME280;61996;49.910;35.562;2023-04-29T03:27:38;98949.53;;;20.24;43.39
73692;BME280;61996;49.910;35.562;2023-04-29T03:30:41;98957.53;;;20.24;43.29
73692;BME280;61996;49.910;35.562;2023-04-29T03:33:44;98955.34;;;20.27;43.36
73692;BME280;61996;49.910;35.562;2023-04-29T03:36:47;98952.69;;;20.27;43.16
73692;BME280;61996;49.910;35.562;2023-04-29T03:39:49;98951.50;;;20.22;43.28
73692;BME280;61996;49.910;35.562;2023-04-29T03:42:54;98955.34;;;20.19;43.34
73692;BME280;61996;49.910;35.562;2023-04-29T03:45:57;98954.88;;;20.24;43.42
73692;BME280;61996;49.910;35.562;2023-04-29T03:48:59;98973.38;;;20.25;43.51
73692;BME280;61996;49.910;35.562;2023-04-29T03:52:02;98978.03;;;20.23;43.41
73692;BME280;61996;49.910;35.562;2023-04-29T03:55:06;98973.03;;;20.20;43.30
73692;BME280;61996;49.910;35.562;2023-04-29T03:58:10;98983.25;;;20.25;43.21
73692;BME280;61996;49.910;35.562;2023-04-29T04:01:14;98982.03;;;20.19;43.37
73692;BME280;61996;49.910;35.562;2023-04-29T04:04:17;98998.25;;;20.26;43.21
73692;BME280;61996;49.910;35.562;2023-04-29T04:07:20;99001.94;;;20.25;42.97
73692;BME280;61996;49.910;35.562;2023-04-29T04:10:23;98998.72;;;20.21;43.17
73692;BME280;61996;49.910;35.562;2023-04-29T04:13:27;98996.72;;;20.15;43.27
73692;BME280;61996;49.910;35.562;2023-04-29T04:16:30;99003.22;;;20.13;43.26
73692;BME280;61996;49.910;35.562;2023-04-29T04:19:32;99009.38;;;20.13;43.24
73692;BME280;61996;49.910;35.562;2023-04-29T04:22:35;99011.06;;;20.14;43.17
73692;BME280;61996;49.910;35.562;2023-04-29T04:25:43;99004.91;;;20.22;43.03
73692;BME280;61996;49.910;35.562;2023-04-29T04:28:48;99009.59;;;20.20;43.02
73692;BME280;61996;49.910;35.562;2023-04-29T04:31:50;99026.97;;;20.24;42.65
73692;BME280;61996;49.910;35.562;2023-04-29T04:34:53;99038.28;;;20.18;42.97
73692;BME280;61996;49.910;35.562;2023-04-29T04:37:56;99021.44;;;20.17;42.90
73692;BME280;61996;49.910;35.562;2023-04-29T04:40:59;99022.91;;;20.12;43.00
73692;BME280;61996;49.910;35.562;2023-04-29T04:44:07;99010.75;;;20.17;42.82
73692;BME280;61996;49.910;35.562;2023-04-29T04:47:10;99011.06;;;20.22;42.82
73692;BME280;61996;49.910;35.562;2023-04-29T04:50:13;99018.59;;;20.19;42.74
73692;BME280;61996;49.910;35.562;2023-04-29T04:53:15;99022.75;;;20.21;42.73
73692;BME280;61996;49.910;35.562;2023-04-29T04:56:18;99028.06;;;20.13;42.93
73692;BME280;61996;49.910;35.562;2023-04-29T04:59:23;99045.09;;;20.12;42.91
73692;BME280;61996;49.910;35.562;2023-04-29T05:02:25;99045.56;;;20.08;42.92
73692;BME280;61996;49.910;35.562;2023-04-29T05:05:28;99045.09;;;20.12;42.82
73692;BME280;61996;49.910;35.562;2023-04-29T05:08:31;99052.47;;;20.18;42.77
73692;BME280;61996;49.910;35.562;2023-04-29T05:11:34;99064.28;;;20.16;42.78
73692;BME280;61996;49.910;35.562;2023-04-29T05:14:38;99047.09;;;20.10;42.85
73692;BME280;61996;49.910;35.562;2023-04-29T05:17:41;99046.44;;;20.16;42.80
73692;BME280;61996;49.910;35.562;2023-04-29T05:20:44;99048.97;;;20.18;42.75
73692;BME280;61996;49.910;35.562;2023-04-29T05:23:47;99054.50;;;20.24;42.52
73692;BME280;61996;49.910;35.562;2023-04-29T05:26:50;99050.47;;;20.20;42.67
73692;BME280;61996;49.910;35.562;2023-04-29T05:29:56;99050.28;;;20.22;42.63
73692;BME280;61996;49.910;35.562;2023-04-29T05:32:59;99053.28;;;20.19;42.58
73692;BME280;61996;49.910;35.562;2023-04-29T05:36:02;99059.09;;;20.14;42.60
73692;BME280;61996;49.910;35.562;2023-04-29T05:39:05;99055.78;;;20.12;42.68
73692;BME280;61996;49.910;35.562;2023-04-29T05:42:08;99045.94;;;20.13;42.50
73692;BME280;61996;49.910;35.562;2023-04-29T05:45:12;99046.63;;;20.23;42.42
73692;BME280;61996;49.910;35.562;2023-04-29T05:48:15;99041.25;;;20.15;42.69
73692;BME280;61996;49.910;35.562;2023-04-29T05:51:18;99037.94;;;20.21;42.42
73692;BME280;61996;49.910;35.562;2023-04-29T05:54:21;99045.13;;;20.20;42.59
73692;BME280;61996;49.910;35.562;2023-04-29T05:57:23;99043.63;;;20.18;42.45
73692;BME280;61996;49.910;35.562;2023-04-29T06:00:28;99047.13;;;20.18;42.54
73692;BME280;61996;49.910;35.562;2023-04-29T06:03:32;99057.16;;;20.24;42.37
73692;BME280;61996;49.910;35.562;2023-04-29T06:06:35;99061.78;;;20.14;42.63
73692;BME280;61996;49.910;35.562;2023-04-29T06:09:38;99066.47;;;20.20;42.50
73692;BME280;61996;49.910;35.562;2023-04-29T06:12:41;99080.03;;;20.27;42.32
73692;BME280;61996;49.910;35.562;2023-04-29T06:15:45;99068.03;;;20.31;42.23
73692;BME280;61996;49.910;35.562;2023-04-29T06:18:48;99075.22;;;20.31;42.28
73692;BME280;61996;49.910;35.562;2023-04-29T06:21:51;99075.34;;;20.29;42.25
73692;BME280;61996;49.910;35.562;2023-04-29T06:24:54;99085.53;;;20.25;42.12
73692;BME280;61996;49.910;35.562;2023-04-29T06:27:57;99086.72;;;20.31;42.16
73692;BME280;61996;49.910;35.562;2023-04-29T06:31:01;99087.56;;;20.32;42.22
73692;BME280;61996;49.910;35.562;2023-04-29T06:34:04;99080.84;;;20.27;42.30
73692;BME280;61996;49.910;35.562;2023-04-29T06:37:06;99086.19;;;20.27;42.30
73692;BME280;61996;49.910;35.562;2023-04-29T06:40:10;99081.31;;;20.23;42.24
73692;BME280;61996;49.910;35.562;2023-04-29T06:43:13;99098.34;;;20.22;42.28
73692;BME280;61996;49.910;35.562;2023-04-29T06:46:17;99091.88;;;20.24;42.40
73692;BME280;61996;49.910;35.562;2023-04-29T06:49:20;99107.53;;;20.19;42.14
73692;BME280;61996;49.910;35.562;2023-04-29T06:52:23;99101.38;;;20.27;42.08
73692;BME280;61996;49.910;35.562;2023-04-29T06:55:25;99110.91;;;20.30;42.08
73692;BME280;61996;49.910;35.562;2023-04-29T06:58:28;99119.91;;;20.29;42.18
73692;BME280;61996;49.910;35.562;2023-04-29T07:01:32;99130.59;;;20.29;42.03
73692;BME280;61996;49.910;35.562;2023-04-29T07:04:35;99123.41;;;20.29;42.05
73692;BME280;61996;49.910;35.562;2023-04-29T07:07:39;99119.75;;;20.30;42.13
73692;BME280;61996;49.910;35.562;2023-04-29T07:10:41;99131.91;;;20.24;42.13
73692;BME280;61996;49.910;35.562;2023-04-29T07:13:44;99133.97;;;20.31;42.10
73692;BME280;61996;49.910;35.562;2023-04-29T07:16:49;99126.91;;;20.30;41.90
73692;BME280;61996;49.910;35.562;2023-04-29T07:19:54;99136.47;;;20.32;42.08
73692;BME280;61996;49.910;35.562;2023-04-29T07:22:57;99146.94;;;20.25;42.07
73692;BME280;61996;49.910;35.562;2023-04-29T07:26:07;99140.59;;;20.26;42.06
73692;BME280;61996;49.910;35.562;2023-04-29T07:29:10;99148.44;;;20.28;42.09
73692;BME280;61996;49.910;35.562;2023-04-29T07:32:14;99155.44;;;20.29;41.87
73692;BME280;61996;49.910;35.562;2023-04-29T07:35:17;99151.78;;;20.30;42.04
73692;BME280;61996;49.910;35.562;2023-04-29T07:38:21;99155.31;;;20.31;41.94
73692;BME280;61996;49.910;35.562;2023-04-29T07:41:24;99153.31;;;20.33;42.14
73692;BME280;61996;49.910;35.562;2023-04-29T07:44:26;99155.31;;;20.31;42.05
73692;BME280;61996;49.910;35.562;2023-04-29T07:47:31;99163.50;;;20.37;42.00
73692;BME280;61996;49.910;35.562;2023-04-29T07:50:33;99148.81;;;20.33;41.92
73692;BME280;61996;49.910;35.562;2023-04-29T07:53:37;99155.50;;;20.37;41.72
73692;BME280;61996;49.910;35.562;2023-04-29T07:56:39;99161.53;;;20.39;41.91
73692;BME280;61996;49.910;35.562;2023-04-29T07:59:42;99163.38;;;20.39;41.76
73692;BME280;61996;49.910;35.562;2023-04-29T08:02:46;99165.50;;;20.35;41.72
73692;BME280;61996;49.910;35.562;2023-04-29T08:05:52;99157.50;;;20.35;41.98
73692;BME280;61996;49.910;35.562;2023-04-29T08:08:56;99158.66;;;20.33;42.00
73692;BME280;61996;49.910;35.562;2023-04-29T08:11:59;99157.28;;;20.29;42.15
73692;BME280;61996;49.910;35.562;2023-04-29T08:15:03;99164.31;;;20.30;42.11
73692;BME280;61996;49.910;35.562;2023-04-29T08:18:09;99159.97;;;20.29;42.15
73692;BME280;61996;49.910;35.562;2023-04-29T08:21:12;99161.63;;;20.30;42.16
73692;BME280;61996;49.910;35.562;2023-04-29T08:24:15;99162.84;;;20.35;41.94
73692;BME280;61996;49.910;35.562;2023-04-29T08:27:18;99177.19;;;20.34;42.03
73692;BME280;61996;49.910;35.562;2023-04-29T08:30:21;99197.72;;;20.34;42.13
73692;BME280;61996;49.910;35.562;2023-04-29T08:33:26;99193.00;;;20.27;42.19
73692;BME280;61996;49.910;35.562;2023-04-29T08:36:29;99197.53;;;20.35;42.05
73692;BME280;61996;49.910;35.562;2023-04-29T08:39:32;99201.38;;;20.33;42.16
73692;BME280;61996;49.910;35.562;2023-04-29T08:42:35;99192.84;;;20.29;42.05
73692;BME280;61996;49.910;35.562;2023-04-29T08:45:38;99205.56;;;20.35;42.07
73692;BME280;61996;49.910;35.562;2023-04-29T08:48:43;99215.56;;;20.33;42.00
73692;BME280;61996;49.910;35.562;2023-04-29T08:51:47;99215.56;;;20.33;42.09
73692;BME280;61996;49.910;35.562;2023-04-29T08:54:53;99214.09;;;20.39;42.11
73692;BME280;61996;49.910;35.562;2023-04-29T08:57:56;99204.75;;;20.43;42.13
73692;BME280;61996;49.910;35.562;2023-04-29T09:00:59;99209.66;;;19.95;42.91
73692;BME280;61996;49.910;35.562;2023-04-29T09:04:07;99217.09;;;19.66;43.57
73692;BME280;61996;49.910;35.562;2023-04-29T09:07:11;99211.69;;;19.58;43.33
73692;BME280;61996;49.910;35.562;2023-04-29T09:10:14;99217.94;;;20.10;42.62
73692;BME280;61996;49.910;35.562;2023-04-29T09:13:24;99210.84;;;20.27;42.19
73692;BME280;61996;49.910;35.562;2023-04-29T09:16:27;99211.41;;;20.31;42.03
73692;BME280;61996;49.910;35.562;2023-04-29T09:19:31;99201.22;;;20.34;41.73
73692;BME280;61996;49.910;35.562;2023-04-29T09:22:40;99189.88;;;20.32;41.86
73692;BME280;61996;49.910;35.562;2023-04-29T09:25:54;99176.19;;;20.35;41.92
73692;BME280;61996;49.910;35.562;2023-04-29T09:32:18;99181.06;;;20.40;41.63
73692;BME280;61996;49.910;35.562;2023-04-29T09:35:24;99180.38;;;20.38;41.70
73692;BME280;61996;49.910;35.562;2023-04-29T09:38:27;99183.06;;;20.38;41.62
73692;BME280;61996;49.910;35.562;2023-04-29T09:41:30;99187.88;;;20.34;41.63
73692;BME280;61996;49.910;35.562;2023-04-29T09:44:33;99187.88;;;20.34;41.71
73692;BME280;61996;49.910;35.562;2023-04-29T09:47:37;99193.22;;;20.34;41.42
73692;BME280;61996;49.910;35.562;2023-04-29T09:50:42;99195.41;;;20.39;41.57
73692;BME280;61996;49.910;35.562;2023-04-29T09:53:45;99189.69;;;20.34;41.60
73692;BME280;61996;49.910;35.562;2023-04-29T09:56:48;99200.59;;;20.40;41.56
73692;BME280;61996;49.910;35.562;2023-04-29T09:59:52;99184.88;;;20.37;41.53
73692;BME280;61996;49.910;35.562;2023-04-29T10:02:55;99192.22;;;20.35;41.60
73692;BME280;61996;49.910;35.562;2023-04-29T10:06:02;99198.75;;;20.41;41.58
73692;BME280;61996;49.910;35.562;2023-04-29T10:09:05;99198.75;;;20.41;41.42
73692;BME280;61996;49.910;35.562;2023-04-29T10:12:08;99196.09;;;20.41;41.37
73692;BME280;61996;49.910;35.562;2023-04-29T10:15:16;99201.25;;;20.42;41.54
73692;BME280;61996;49.910;35.562;2023-04-29T10:18:24;99189.03;;;20.32;41.61
73692;BME280;61996;49.910;35.562;2023-04-29T10:21:29;99193.22;;;20.34;41.47
73692;BME280;61996;49.910;35.562;2023-04-29T10:24:32;99193.88;;;20.36;41.51
73692;BME280;61996;49.910;35.562;2023-04-29T10:27:38;99191.22;;;20.36;41.29
73692;BME280;61996;49.910;35.562;2023-04-29T10:30:42;99197.91;;;20.40;41.30
73692;BME280;61996;49.910;35.562;2023-04-29T10:33:45;99188.91;;;20.41;41.34
73692;BME280;61996;49.910;35.562;2023-04-29T10:36:50;99178.78;;;20.45;41.33
73692;BME280;61996;49.910;35.562;2023-04-29T10:39:56;99174.78;;;20.49;41.33
73692;BME280;61996;49.910;35.562;2023-04-29T10:43:02;99171.63;;;20.53;41.12
73692;BME280;61996;49.910;35.562;2023-04-29T10:46:18;99177.28;;;20.50;41.14
73692;BME280;61996;49.910;35.562;2023-04-29T10:49:21;99171.63;;;20.53;41.30
73692;BME280;61996;49.910;35.562;2023-04-29T10:52:27;99180.78;;;20.51;41.15
73692;BME280;61996;49.910;35.562;2023-04-29T10:55:30;99178.44;;;20.48;41.20
73692;BME280;61996;49.910;35.562;2023-04-29T10:58:34;99182.28;;;20.45;41.38
73692;BME280;61996;49.910;35.562;2023-04-29T11:01:40;99177.06;;;20.44;41.26
73692;BME280;61996;49.910;35.562;2023-04-29T11:08:09;99176.13;;;20.45;41.28
73692;BME280;61996;49.910;35.562;2023-04-29T11:11:13;99171.72;;;20.44;41.35
73692;BME280;61996;49.910;35.562;2023-04-29T11:14:20;99172.56;;;20.44;41.39
73692;BME280;61996;49.910;35.562;2023-04-29T11:17:23;99170.03;;;20.43;41.40
73692;BME280;61996;49.910;35.562;2023-04-29T11:20:28;99178.97;;;20.51;40.89
73692;BME280;61996;49.910;35.562;2023-04-29T11:23:33;99169.63;;;20.56;40.97
73692;BME280;61996;49.910;35.562;2023-04-29T11:26:36;99171.13;;;20.58;41.06
73692;BME280;61996;49.910;35.562;2023-04-29T11:29:40;99169.16;;;20.60;41.04
73692;BME280;61996;49.910;35.562;2023-04-29T11:32:43;99170.47;;;20.56;41.13
73692;BME280;61996;49.910;35.562;2023-04-29T11:35:46;99176.16;;;20.61;40.94
73692;BME280;61996;49.910;35.562;2023-04-29T11:38:50;99175.16;;;20.62;41.05
73692;BME280;61996;49.910;35.562;2023-04-29T11:42:01;99187.84;;;20.60;41.06
73692;BME280;61996;49.910;35.562;2023-04-29T11:45:04;99191.53;;;20.59;41.13
73692;BME280;61996;49.910;35.562;2023-04-29T11:48:07;99178.47;;;20.56;40.82
73692;BME280;61996;49.910;35.562;2023-04-29T11:51:10;99177.16;;;20.60;40.90
73692;BME280;61996;49.910;35.562;2023-04-29T11:54:15;99178.84;;;20.61;40.92
73692;BME280;61996;49.910;35.562;2023-04-29T11:57:18;99185.34;;;20.59;40.78
73692;BME280;61996;49.910;35.562;2023-04-29T12:00:21;99187.16;;;20.58;40.92
73692;BME280;61996;49.910;35.562;2023-04-29T12:03:24;99190.91;;;20.39;41.39
73692;BME280;61996;49.910;35.562;2023-04-29T12:06:27;99196.97;;;20.49;41.26
73692;BME280;61996;49.910;35.562;2023-04-29T12:09:41;99203.69;;;20.53;41.07
73692;BME280;61996;49.910;35.562;2023-04-29T12:12:45;99206.53;;;20.52;41.09
73692;BME280;61996;49.910;35.562;2023-04-29T12:15:48;99214.88;;;20.57;41.55
73692;BME280;61996;49.910;35.562;2023-04-29T12:18:51;99213.22;;;20.56;41.31
73692;BME280;61996;49.910;35.562;2023-04-29T12:21:57;99214.22;;;20.55;41.42
73692;BME280;61996;49.910;35.562;2023-04-29T12:25:03;99219.56;;;20.55;41.50
73692;BME280;61996;49.910;35.562;2023-04-29T12:28:10;99218.88;;;20.53;41.69
73692;BME280;61996;49.910;35.562;2023-04-29T12:31:13;99209.69;;;20.56;41.48
73692;BME280;61996;49.910;35.562;2023-04-29T12:34:23;99197.56;;;20.69;41.41
73692;BME280;61996;49.910;35.562;2023-04-29T12:37:26;99196.88;;;20.59;41.47
73692;BME280;61996;49.910;35.562;2023-04-29T12:40:31;99193.38;;;20.59;41.42
73692;BME280;61996;49.910;35.562;2023-04-29T12:43:34;99195.72;;;20.62;41.11
73692;BME280;61996;49.910;35.562;2023-04-29T12:46:38;99186.84;;;20.61;41.22
73692;BME280;61996;49.910;35.562;2023-04-29T12:49:42;99168.47;;;20.58;41.20
73692;BME280;61996;49.910;35.562;2023-04-29T12:52:45;99169.63;;;20.56;41.28
73692;BME280;61996;49.910;35.562;2023-04-29T12:55:50;99163.97;;;20.59;41.01
73692;BME280;61996;49.910;35.562;2023-04-29T12:58:53;99168.31;;;20.60;41.19
73692;BME280;61996;49.910;35.562;2023-04-29T13:01:56;99162.28;;;20.58;41.21
73692;BME280;61996;49.910;35.562;2023-04-29T13:04:58;99167.50;;;20.59;41.04
73692;BME280;61996;49.910;35.562;2023-04-29T13:08:02;99180.00;;;20.59;41.14
73692;BME280;61996;49.910;35.562;2023-04-29T13:11:07;99178.00;;;20.61;41.10
73692;BME280;61996;49.910;35.562;2023-04-29T13:14:10;99179.16;;;20.58;41.14
73692;BME280;61996;49.910;35.562;2023-04-29T13:17:13;99183.00;;;20.56;41.14
73692;BME280;61996;49.910;35.562;2023-04-29T13:20:16;99182.50;;;20.60;40.99
73692;BME280;61996;49.910;35.562;2023-04-29T13:23:19;99193.88;;;20.62;40.89
73692;BME280;61996;49.910;35.562;2023-04-29T13:26:23;99198.72;;;20.59;41.12
73692;BME280;61996;49.910;35.562;2023-04-29T13:29:27;99195.91;;;20.42;41.30
73692;BME280;61996;49.910;35.562;2023-04-29T13:32:30;99192.97;;;20.45;41.16
73692;BME280;61996;49.910;35.562;2023-04-29T13:35:49;99181.78;;;20.50;41.24
73692;BME280;61996;49.910;35.562;2023-04-29T13:38:52;99182.28;;;20.45;41.34
73692;BME280;61996;49.910;35.562;2023-04-29T13:41:57;99171.28;;;20.48;41.24
73692;BME280;61996;49.910;35.562;2023-04-29T13:45:00;99172.28;;;20.47;40.93
73692;BME280;61996;49.910;35.562;2023-04-29T13:48:04;99180.13;;;20.49;41.10
73692;BME280;61996;49.910;35.562;2023-04-29T13:51:27;99183.97;;;20.46;41.27
73692;BME280;61996;49.910;35.562;2023-04-29T13:54:32;99179.28;;;20.48;40.68
73692;BME280;61996;49.910;35.562;2023-04-29T13:57:39;99178.13;;;20.51;40.97
73692;BME280;61996;49.910;35.562;2023-04-29T14:00:45;99180.72;;;20.43;41.02
73692;BME280;61996;49.910;35.562;2023-04-29T14:03:52;99185.06;;;20.44;41.00
73692;BME280;61996;49.910;35.562;2023-04-29T14:06:56;99177.78;;;20.46;40.83
73692;BME280;61996;49.910;35.562;2023-04-29T14:09:59;99183.78;;;20.48;40.99
73692;BME280;61996;49.910;35.562;2023-04-29T14:13:03;99175.63;;;20.49;41.06
73692;BME280;61996;49.910;35.562;2023-04-29T14:16:06;99179.81;;;20.52;41.05
73692;BME280;61996;49.910;35.562;2023-04-29T14:19:10;99189.13;;;20.48;40.98
73692;BME280;61996;49.910;35.562;2023-04-29T14:22:13;99184.97;;;20.45;40.99
73692;BME280;61996;49.910;35.562;2023-04-29T14:25:16;99183.72;;;20.40;41.04
73692;BME280;61996;49.910;35.562;2023-04-29T14:28:20;99192.41;;;20.42;41.21
73692;BME280;61996;49.910;35.562;2023-04-29T14:31:23;99189.06;;;20.40;41.10
73692;BME280;61996;49.910;35.562;2023-04-29T14:34:26;99193.41;;;20.41;41.09
73692;BME280;61996;49.910;35.562;2023-04-29T14:37:28;99195.91;;;20.42;40.93
73692;BME280;61996;49.910;35.562;2023-04-29T14:40:32;99193.03;;;20.36;40.97
73692;BME280;61996;49.910;35.562;2023-04-29T14:43:36;99190.38;;;20.36;40.94
73692;BME280;61996;49.910;35.562;2023-04-29T14:46:39;99195.53;;;20.37;41.00
73692;BME280;61996;49.910;35.562;2023-04-29T14:49:42;99200.22;;;20.35;40.93
73692;BME280;61996;49.910;35.562;2023-04-29T14:52:45;99191.22;;;20.36;40.94
73692;BME280;61996;49.910;35.562;2023-04-29T14:55:48;99187.88;;;20.34;40.96
73692;BME280;61996;49.910;35.562;2023-04-29T14:58:52;99177.50;;;20.31;40.99
73692;BME280;61996;49.910;35.562;2023-04-29T15:01:55;99176.50;;;20.32;40.93
73692;BME280;61996;49.910;35.562;2023-04-29T15:04:58;99172.00;;;20.33;40.92
73692;BME280;61996;49.910;35.562;2023-04-29T15:08:01;99189.03;;;20.32;40.69
73692;BME280;61996;49.910;35.562;2023-04-29T15:11:03;99200.56;;;20.32;40.73
73692;BME280;61996;49.910;35.562;2023-04-29T15:14:08;99195.69;;;20.27;40.79
73692;BME280;61996;49.910;35.562;2023-04-29T15:17:10;99189.34;;;20.29;40.76
73692;BME280;61996;49.910;35.562;2023-04-29T15:20:13;99190.16;;;20.29;40.76
73692;BME280;61996;49.910;35.562;2023-04-29T15:23:16;99181.50;;;20.27;40.76
73692;BME280;61996;49.910;35.562;2023-04-29T15:26:19;99176.97;;;20.27;40.72
73692;BME280;61996;49.910;35.562;2023-04-29T15:29:23;99182.84;;;20.31;40.69
73692;BME280;61996;49.910;35.562;2023-04-29T15:32:26;99182.84;;;20.31;40.45
73692;BME280;61996;49.910;35.562;2023-04-29T15:35:33;99187.38;;;20.31;40.74
73692;BME280;61996;49.910;35.562;2023-04-29T15:38:36;99187.19;;;20.32;40.43
73692;BME280;61996;49.910;35.562;2023-04-29T15:41:39;99180.31;;;20.30;40.55
73692;BME280;61996;49.910;35.562;2023-04-29T15:44:43;99189.34;;;20.29;40.68
73692;BME280;61996;49.910;35.562;2023-04-29T15:47:46;99186.66;;;20.29;40.58
73692;BME280;61996;49.910;35.562;2023-04-29T15:50:49;99192.16;;;20.27;40.57
73692;BME280;61996;49.910;35.562;2023-04-29T15:53:53;99185.00;;;20.27;40.55
73692;BME280;61996;49.910;35.562;2023-04-29T15:56:56;99175.81;;;20.30;40.57
73692;BME280;61996;49.910;35.562;2023-04-29T16:00:00;99180.66;;;20.26;40.51
73692;BME280;61996;49.910;35.562;2023-04-29T16:03:05;99179.81;;;20.26;40.49
73692;BME280;61996;49.910;35.562;2023-04-29T16:06:08;99176.47;;;20.24;40.64
73692;BME280;61996;49.910;35.562;2023-04-29T16:09:14;99176.09;;;20.19;40.62